Language selection

Features

My Weather Profile Weather Topics  | 

Lake Melville: Past 24 Hour Conditions

 

St. Anthony Airport

06:30 AM NST 19 January 2020
Disclaimer

This table is a summary of hourly weather conditions for the past 24 hours.
Please note that these observations might not always be representative of weather conditions over their associated marine area.

Date / Time
(NST)
Wind(knots) Conditions Visibility(km) Pressure(kPa) Air tempC) Relative humidity(%) Dew pointC) Wind Chill
19 January 2020
6:30 WSW 13 Clear 16 101.6 -20 76 -24 -32
5:30 WSW 11 Clear 16 101.6 -21 75 -24 -32
4:30 SSE 5 Mainly Clear 16 101.6 -22 74 -25 -29
3:30 WSW 7 Clear 16 101.5 -21 73 -25 -30
2:30 WSW 7 Clear 16 101.4 -20 70 -24 -28
1:30 W 11 Clear 16 101.4 -19 68 -24 -30
0:30 W 12 Clear 16 101.4 -20 69 -24 -30
18 January 2020
23:30 W 11 gust 18 Clear 16 101.4 -19 65 -24 -29
22:30 W 15 gust 21 Clear 16 101.4 -18 65 -23 -29
21:30 W 18 gust 23 Clear 16 101.3 -17 64 -22 -29
20:30 W 12 gust 18 Clear 16 101.2 -17 63 -23 -27
19:30 W 19 Clear 16 101.2 -17 63 -22 -29
18:30 W 20 gust 26 Clear 16 101.1 -17 62 -22 -29
17:30 W 16 gust 28 Clear 16 101.0 -17 61 -23 -28
16:30 W 18 gust 29 Sunny 16 100.9 -16 60 -22 -28
15:30 W 18 gust 23 Sunny 16 100.8 -15 60 -22 -27
14:30 W 20 gust 29 Sunny 16 100.7 -16 60 -22 -28
13:30 W 25 gust 30 Sunny 16 100.7 -15 64 -21 -28
12:30 W 19 gust 26 Sunny 16 100.6 -15 68 -20 -27
11:30 W 22 gust 28 Mainly Sunny 16 100.5 -15 71 -19 -28
10:30 WNW 20 gust 33 Sunny 16 100.4 -16 75 -19 -28
9:30 WNW 18 gust 24 Mainly Sunny 16 100.3 -17 76 -20 -28
8:30 WNW 21 gust 27 Cloudy 16 100.3 -17 77 -20 -30
7:30 WNW 18 gust 25 Mostly Cloudy 16 100.2 -17 81 -20 -29
6:30 WNW 25 gust 35 Partly Cloudy 16 100.1 -17 79 -20 -31

Zoom-in to make a selection

Map of Atlantic - Newfoundland marine weather areas Banquereau - 44139 Blanc-Sablon Airport Cap Whittle Chevery Natashquan Airport Heath Point Îles de la Madeleine Airport Miscou Island Eskasoni (First Nations) Grand Étang Ingonish Beach North Mountain St.Paul Island J.A. Douglas McCurdy Sydney Airport Charlottetown Airport East Point North Cape Argentia Bonavista Burgeo Cape Race Corner Brook Daniel's Harbour Englee Ferolle Point La Scie Port aux Basques Rocky Harbour Sagona Island St. Anthony Airport St. John's Int'l Airport St. Lawrence Stephenville Airport Twillingate Winterland Branch Hill Wreckhouse Grates Cove Pool's Island Marticot Island Long Pond Cartwright Airport Mary's Harbour
Legend:
buoy Buoy
land station Land Station

Atlantic - Newfoundland Area

Another Region

What we are doing

Date modified: